| time (UTC) | temp C | wind direction | speed KPH | gust KPH | rain 1hr cm | rain 24hr cm | rain mn cm | humidity % | barometer mb |
| 20260503033015 | 12 | 60 | 0.0 | 1.6 | 0.00 | 0.00 | 0.00 | 47 | 1016.0 |
| 20260503031514 | 12 | 63 | 0.0 | 4.8 | 0.00 | 0.00 | 0.00 | 48 | 1015.8 |
| 20260503030012 | 12 | 55 | 1.6 | 6.4 | 0.00 | 0.00 | 0.00 | 48 | 1015.6 |
| 20260503024512 | 12 | 52 | 3.2 | 4.8 | 0.00 | 0.00 | 0.00 | 47 | 1015.5 |
| 20260503023033 | 13 | 67 | 1.6 | 4.8 | 0.00 | 0.00 | 0.00 | 47 | 1015.5 |
| 20260503021512 | 13 | 77 | 0.0 | 0.0 | 0.00 | 0.00 | 0.00 | 44 | 1015.3 |
| 20260503020010 | 15 | 5 | 0.0 | 0.0 | 0.00 | 0.00 | 0.00 | 39 | 1015.4 |
| 20260503014510 | 16 | 345 | 1.6 | 6.4 | 0.00 | 0.00 | 0.00 | 37 | 1015.5 |
| 20260503013010 | 18 | 338 | 8.0 | 14.5 | 0.00 | 0.00 | 0.00 | 34 | 1015.6 |
| 20260503011509 | 17 | 63 | 11.3 | 20.9 | 0.00 | 0.00 | 0.00 | 35 | 1015.5 |
| 20260503010009 | 17 | 321 | 1.6 | 6.4 | 0.00 | 0.00 | 0.00 | 36 | 1015.8 |
| 20260503004509 | 17 | 49 | 1.6 | 8.0 | 0.00 | 0.00 | 0.00 | 37 | 1015.9 |
| 20260503003008 | 17 | 21 | 4.8 | 12.9 | 0.00 | 0.00 | 0.00 | 37 | 1016.1 |
| 20260503001507 | 17 | 24 | 3.2 | 12.9 | 0.00 | 0.00 | 0.00 | 36 | 1016.1 |
| 20260503000014 | 17 | 253 | 0.0 | 4.8 | 0.00 | 0.00 | 0.00 | 35 | 1016.2 |
| 20260502234508 | 17 | 256 | 3.2 | 12.9 | 0.00 | 0.00 | 0.00 | 36 | 1016.3 |
| 20260502233005 | 19 | 178 | 3.2 | 11.3 | 0.00 | 0.00 | 0.00 | 34 | 1016.3 |
| 20260502231505 | 18 | 144 | 1.6 | 12.9 | 0.00 | 0.00 | 0.00 | 35 | 1016.5 |
| 20260502230004 | 18 | 343 | 8.0 | 14.5 | 0.00 | 0.00 | 0.00 | 35 | 1016.7 |
| 20260502224504 | 19 | 155 | 0.0 | 11.3 | 0.00 | 0.00 | 0.00 | 35 | 1016.6 |
| 20260502223003 | 18 | 326 | 0.0 | 6.4 | 0.00 | 0.00 | 0.00 | 34 | 1017.1 |
| 20260502221502 | 20 | 219 | 4.8 | 11.3 | 0.00 | 0.00 | 0.00 | 33 | 1017.1 |
| 20260502220059 | 19 | 127 | 4.8 | 11.3 | 0.00 | 0.00 | 0.00 | 35 | 1017.3 |
| 20260502214555 | 17 | 127 | 0.0 | 6.4 | 0.00 | 0.00 | 0.00 | 38 | 1017.7 |
| 20260502213055 | 17 | 313 | 8.0 | 14.5 | 0.00 | 0.00 | 0.00 | 38 | 1017.8 |
| 20260502211556 | 17 | 12 | 8.0 | 16.1 | 0.00 | 0.00 | 0.00 | 38 | 1017.9 |
| 20260502210054 | 17 | 341 | 9.7 | 25.7 | 0.00 | 0.00 | 0.00 | 38 | 1018.1 |
| 20260502204603 | 17 | 355 | 8.0 | 16.1 | 0.00 | 0.00 | 0.00 | 38 | 1018.2 |
| 20260502203053 | 17 | 286 | 12.9 | 20.9 | 0.00 | 0.00 | 0.00 | 37 | 1018.3 |
| 20260502201551 | 17 | 25 | 8.0 | 53.1 | 0.00 | 0.00 | 0.00 | 40 | 1018.5 |
| 20260502200050 | 16 | 116 | 0.0 | 17.7 | 0.00 | 0.00 | 0.00 | 42 | 1018.7 |
| 20260502194546 | 15 | 67 | 9.7 | 22.5 | 0.00 | 0.00 | 0.00 | 43 | 1018.7 |
| 20260502193046 | 15 | 56 | 12.9 | 20.9 | 0.00 | 0.00 | 0.00 | 44 | 1018.9 |
| 20260502191556 | 15 | 56 | 9.7 | 19.3 | 0.00 | 0.00 | 0.00 | 44 | 1019.2 |
| 20260502190045 | 15 | 41 | 9.7 | 20.9 | 0.00 | 0.00 | 0.00 | 44 | 1019.2 |
| 20260502184545 | 15 | 46 | 6.4 | 20.9 | 0.00 | 0.00 | 0.00 | 43 | 1019.1 |
| 20260502183044 | 15 | 28 | 9.7 | 19.3 | 0.00 | 0.00 | 0.00 | 43 | 1019.2 |
| 20260502181550 | 15 | 331 | 14.5 | 22.5 | 0.00 | 0.00 | 0.00 | 43 | 1019.1 |
| 20260502163040 | 15 | 355 | 16.1 | 25.7 | 0.00 | 0.00 | 0.00 | 42 | 1019.3 |
| 20260502161538 | 15 | 46 | 14.5 | 25.7 | 0.00 | 0.00 | 0.00 | 41 | 1019.2 |
| 20260502151540 | 14 | 39 | 12.9 | 22.5 | 0.00 | 0.00 | 0.00 | 44 | 1019.1 |
| 20260502123012 | 8 | 19 | 16.1 | 25.7 | 0.00 | 0.00 | 0.00 | 56 | 1018.4 |
| 20260502121513 | 8 | 15 | 14.5 | 25.7 | 0.00 | 0.00 | 0.00 | 56 | 1018.1 |
| 20260502114508 | 7 | 46 | 14.5 | 24.1 | 0.00 | 0.00 | 0.00 | 57 | 1017.8 |
| 20260502113005 | 8 | 62 | 17.7 | 29.0 | 0.00 | 0.00 | 0.00 | 55 | 1017.7 |
| 20260502111502 | 8 | 45 | 17.7 | 24.1 | 0.00 | 0.00 | 0.00 | 54 | 1017.4 |
| 20260502110059 | 8 | 22 | 11.3 | 22.5 | 0.00 | 0.00 | 0.00 | 52 | 1017.2 |
| 20260502104557 | 9 | 57 | 17.7 | 29.0 | 0.00 | 0.00 | 0.00 | 50 | 1017.0 |
| 20260502103054 | 9 | 35 | 12.9 | 24.1 | 0.00 | 0.00 | 0.00 | 49 | 1016.8 |
| 20260502101553 | 10 | 46 | 17.7 | 27.4 | 0.00 | 0.00 | 0.00 | 48 | 1016.5 |
| 20260502071532 | 12 | 51 | 4.8 | 9.7 | 0.00 | 0.00 | 0.00 | 35 | 1015.3 |
| 20260502070029 | 12 | 43 | 6.4 | 12.9 | 0.00 | 0.00 | 0.00 | 34 | 1015.3 |
| 20260502064531 | 12 | 37 | 4.8 | 9.7 | 0.00 | 0.00 | 0.00 | 33 | 1015.3 |
| 20260502063024 | 12 | 15 | 4.8 | 9.7 | 0.00 | 0.00 | 0.00 | 35 | 1015.4 |
| 20260502061521 | 11 | 32 | 6.4 | 16.1 | 0.00 | 0.00 | 0.00 | 37 | 1015.4 |
| 20260502060018 | 11 | 18 | 9.7 | 16.1 | 0.00 | 0.00 | 0.00 | 38 | 1015.2 |
| 20260502054518 | 11 | 334 | 11.3 | 17.7 | 0.00 | 0.00 | 0.00 | 37 | 1015.2 |
| 20260502053017 | 11 | 342 | 8.0 | 14.5 | 0.00 | 0.00 | 0.00 | 35 | 1015.4 |
| 20260502051517 | 12 | 331 | 11.3 | 16.1 | 0.00 | 0.00 | 0.00 | 34 | 1015.3 |
| 20260502050015 | 12 | 323 | 14.5 | 19.3 | 0.00 | 0.00 | 0.00 | 33 | 1015.2 |
| 20260502044515 | 11 | 336 | 8.0 | 14.5 | 0.00 | 0.00 | 0.00 | 35 | 1015.2 |
| 20260502043017 | 11 | 335 | 8.0 | 14.5 | 0.00 | 0.00 | 0.00 | 33 | 1015.2 |
| 20260502041518 | 11 | 336 | 6.4 | 8.0 | 0.00 | 0.00 | 0.00 | 32 | 1015.2 |
| 20260502040014 | 11 | 331 | 4.8 | 6.4 | 0.00 | 0.00 | 0.00 | 30 | 1015.2 |
| 20260502034513 | 12 | 337 | 3.2 | 8.0 | 0.00 | 0.00 | 0.00 | 28 | 1015.1 |